sensor_id;sensor_type;location;lat;lon;timestamp;P1;durP1;ratioP1;P2;durP2;ratioP2
33862;SDS011;20158;51.436;-2.742;2022-07-23T00:02:22;3.70;;;2.28;;
33862;SDS011;20158;51.436;-2.742;2022-07-23T00:04:48;6.15;;;2.55;;
33862;SDS011;20158;51.436;-2.742;2022-07-23T00:07:14;3.80;;;2.22;;
33862;SDS011;20158;51.436;-2.742;2022-07-23T00:09:40;4.38;;;2.40;;
33862;SDS011;20158;51.436;-2.742;2022-07-23T00:12:05;4.95;;;2.00;;
33862;SDS011;20158;51.436;-2.742;2022-07-23T00:14:31;4.20;;;2.53;;
33862;SDS011;20158;51.436;-2.742;2022-07-23T00:16:57;4.18;;;2.53;;
33862;SDS011;20158;51.436;-2.742;2022-07-23T00:19:23;2.95;;;2.03;;
33862;SDS011;20158;51.436;-2.742;2022-07-23T00:21:49;3.78;;;2.75;;
33862;SDS011;20158;51.436;-2.742;2022-07-23T00:24:15;5.68;;;3.92;;
33862;SDS011;20158;51.436;-2.742;2022-07-23T00:26:41;4.18;;;2.70;;
33862;SDS011;20158;51.436;-2.742;2022-07-23T00:29:07;5.72;;;3.20;;
33862;SDS011;20158;51.436;-2.742;2022-07-23T00:31:33;5.72;;;3.38;;
33862;SDS011;20158;51.436;-2.742;2022-07-23T00:33:59;6.13;;;2.97;;
33862;SDS011;20158;51.436;-2.742;2022-07-23T00:36:27;4.13;;;3.15;;
33862;SDS011;20158;51.436;-2.742;2022-07-23T00:38:53;5.07;;;2.95;;
33862;SDS011;20158;51.436;-2.742;2022-07-23T00:41:19;3.78;;;2.90;;
33862;SDS011;20158;51.436;-2.742;2022-07-23T00:43:45;3.95;;;2.85;;
33862;SDS011;20158;51.436;-2.742;2022-07-23T00:46:11;3.13;;;2.50;;
33862;SDS011;20158;51.436;-2.742;2022-07-23T00:48:37;5.22;;;2.60;;
33862;SDS011;20158;51.436;-2.742;2022-07-23T00:51:03;4.03;;;2.70;;
33862;SDS011;20158;51.436;-2.742;2022-07-23T00:53:29;5.25;;;3.13;;
33862;SDS011;20158;51.436;-2.742;2022-07-23T00:55:57;5.15;;;3.58;;
33862;SDS011;20158;51.436;-2.742;2022-07-23T00:58:24;5.15;;;3.83;;
33862;SDS011;20158;51.436;-2.742;2022-07-23T01:00:50;4.82;;;2.78;;
33862;SDS011;20158;51.436;-2.742;2022-07-23T01:03:16;4.10;;;3.42;;
33862;SDS011;20158;51.436;-2.742;2022-07-23T01:05:42;4.57;;;3.00;;
33862;SDS011;20158;51.436;-2.742;2022-07-23T01:08:08;4.65;;;3.03;;
33862;SDS011;20158;51.436;-2.742;2022-07-23T01:10:34;5.38;;;2.97;;
33862;SDS011;20158;51.436;-2.742;2022-07-23T01:13:04;4.40;;;2.78;;
33862;SDS011;20158;51.436;-2.742;2022-07-23T01:15:32;4.63;;;3.00;;
33862;SDS011;20158;51.436;-2.742;2022-07-23T01:18:00;5.00;;;2.70;;
33862;SDS011;20158;51.436;-2.742;2022-07-23T01:20:27;6.63;;;3.20;;
33862;SDS011;20158;51.436;-2.742;2022-07-23T01:22:54;3.72;;;3.00;;
33862;SDS011;20158;51.436;-2.742;2022-07-23T01:25:20;4.55;;;3.05;;
33862;SDS011;20158;51.436;-2.742;2022-07-23T01:27:53;4.05;;;3.15;;
33862;SDS011;20158;51.436;-2.742;2022-07-23T01:30:20;4.97;;;3.67;;
33862;SDS011;20158;51.436;-2.742;2022-07-23T01:32:47;3.38;;;2.70;;
33862;SDS011;20158;51.436;-2.742;2022-07-23T01:35:13;3.17;;;2.88;;
33862;SDS011;20158;51.436;-2.742;2022-07-23T01:37:40;5.80;;;3.50;;
33862;SDS011;20158;51.436;-2.742;2022-07-23T01:40:06;5.95;;;4.03;;
33862;SDS011;20158;51.436;-2.742;2022-07-23T01:42:33;4.10;;;3.28;;
33862;SDS011;20158;51.436;-2.742;2022-07-23T01:44:59;6.25;;;3.17;;
33862;SDS011;20158;51.436;-2.742;2022-07-23T01:47:26;4.75;;;3.47;;
33862;SDS011;20158;51.436;-2.742;2022-07-23T01:49:54;4.72;;;2.95;;
33862;SDS011;20158;51.436;-2.742;2022-07-23T01:52:43;4.82;;;3.15;;
33862;SDS011;20158;51.436;-2.742;2022-07-23T01:55:09;6.65;;;3.03;;
33862;SDS011;20158;51.436;-2.742;2022-07-23T01:57:37;3.85;;;3.05;;
33862;SDS011;20158;51.436;-2.742;2022-07-23T02:00:04;4.03;;;3.13;;
33862;SDS011;20158;51.436;-2.742;2022-07-23T02:02:38;7.13;;;3.97;;
33862;SDS011;20158;51.436;-2.742;2022-07-23T02:05:04;4.32;;;2.97;;
33862;SDS011;20158;51.436;-2.742;2022-07-23T02:07:30;3.88;;;3.13;;
33862;SDS011;20158;51.436;-2.742;2022-07-23T02:09:58;4.53;;;3.35;;
33862;SDS011;20158;51.436;-2.742;2022-07-23T02:12:24;5.60;;;3.33;;
33862;SDS011;20158;51.436;-2.742;2022-07-23T02:14:50;4.50;;;3.25;;
33862;SDS011;20158;51.436;-2.742;2022-07-23T02:17:16;4.28;;;2.75;;
33862;SDS011;20158;51.436;-2.742;2022-07-23T02:19:41;4.45;;;2.95;;
33862;SDS011;20158;51.436;-2.742;2022-07-23T02:22:07;3.95;;;3.20;;
33862;SDS011;20158;51.436;-2.742;2022-07-23T02:24:33;4.20;;;3.17;;
33862;SDS011;20158;51.436;-2.742;2022-07-23T02:26:59;3.15;;;2.85;;
33862;SDS011;20158;51.436;-2.742;2022-07-23T02:29:25;10.73;;;4.15;;
33862;SDS011;20158;51.436;-2.742;2022-07-23T02:31:53;4.80;;;4.35;;
33862;SDS011;20158;51.436;-2.742;2022-07-23T02:34:19;3.92;;;3.20;;
33862;SDS011;20158;51.436;-2.742;2022-07-23T02:36:45;7.45;;;4.00;;
33862;SDS011;20158;51.436;-2.742;2022-07-23T02:39:11;3.58;;;3.28;;
33862;SDS011;20158;51.436;-2.742;2022-07-23T02:41:38;3.78;;;3.17;;
33862;SDS011;20158;51.436;-2.742;2022-07-23T02:44:04;3.80;;;3.28;;
33862;SDS011;20158;51.436;-2.742;2022-07-23T02:46:30;4.32;;;3.70;;
33862;SDS011;20158;51.436;-2.742;2022-07-23T02:48:57;4.35;;;3.40;;
33862;SDS011;20158;51.436;-2.742;2022-07-23T02:51:23;4.38;;;3.63;;
33862;SDS011;20158;51.436;-2.742;2022-07-23T02:53:55;4.72;;;3.38;;
33862;SDS011;20158;51.436;-2.742;2022-07-23T02:56:21;5.25;;;3.78;;
33862;SDS011;20158;51.436;-2.742;2022-07-23T02:58:47;3.78;;;3.22;;
33862;SDS011;20158;51.436;-2.742;2022-07-23T03:01:13;3.45;;;3.03;;
33862;SDS011;20158;51.436;-2.742;2022-07-23T03:03:39;4.82;;;2.83;;
33862;SDS011;20158;51.436;-2.742;2022-07-23T03:06:05;3.95;;;2.95;;
33862;SDS011;20158;51.436;-2.742;2022-07-23T03:08:31;9.23;;;3.72;;
33862;SDS011;20158;51.436;-2.742;2022-07-23T03:10:57;4.03;;;3.63;;
33862;SDS011;20158;51.436;-2.742;2022-07-23T03:13:23;4.93;;;3.80;;
33862;SDS011;20158;51.436;-2.742;2022-07-23T03:15:49;4.35;;;3.33;;
33862;SDS011;20158;51.436;-2.742;2022-07-23T03:18:15;3.65;;;3.17;;
33862;SDS011;20158;51.436;-2.742;2022-07-23T03:20:41;5.22;;;3.22;;
33862;SDS011;20158;51.436;-2.742;2022-07-23T03:23:08;3.15;;;2.85;;
33862;SDS011;20158;51.436;-2.742;2022-07-23T03:25:34;4.30;;;3.90;;
33862;SDS011;20158;51.436;-2.742;2022-07-23T03:28:00;7.53;;;3.22;;
33862;SDS011;20158;51.436;-2.742;2022-07-23T03:30:28;3.78;;;3.17;;
33862;SDS011;20158;51.436;-2.742;2022-07-23T03:32:54;3.85;;;3.08;;
33862;SDS011;20158;51.436;-2.742;2022-07-23T03:35:20;5.47;;;3.45;;
33862;SDS011;20158;51.436;-2.742;2022-07-23T03:38:02;4.65;;;3.20;;
33862;SDS011;20158;51.436;-2.742;2022-07-23T03:40:29;3.63;;;3.25;;
33862;SDS011;20158;51.436;-2.742;2022-07-23T03:42:56;3.17;;;2.88;;
33862;SDS011;20158;51.436;-2.742;2022-07-23T03:45:22;6.47;;;5.70;;
33862;SDS011;20158;51.436;-2.742;2022-07-23T03:47:48;4.32;;;3.42;;
33862;SDS011;20158;51.436;-2.742;2022-07-23T03:50:14;4.90;;;3.55;;
33862;SDS011;20158;51.436;-2.742;2022-07-23T03:52:40;6.07;;;4.18;;
33862;SDS011;20158;51.436;-2.742;2022-07-23T03:55:07;8.45;;;3.88;;
33862;SDS011;20158;51.436;-2.742;2022-07-23T03:57:32;4.75;;;3.65;;
33862;SDS011;20158;51.436;-2.742;2022-07-23T03:59:58;4.93;;;3.45;;
33862;SDS011;20158;51.436;-2.742;2022-07-23T04:02:25;3.88;;;3.55;;
33862;SDS011;20158;51.436;-2.742;2022-07-23T04:04:51;4.38;;;3.70;;
33862;SDS011;20158;51.436;-2.742;2022-07-23T04:07:17;3.95;;;3.10;;
33862;SDS011;20158;51.436;-2.742;2022-07-23T04:09:44;7.10;;;3.47;;
33862;SDS011;20158;51.436;-2.742;2022-07-23T04:12:10;3.90;;;3.33;;
33862;SDS011;20158;51.436;-2.742;2022-07-23T04:14:36;3.47;;;3.03;;
33862;SDS011;20158;51.436;-2.742;2022-07-23T04:17:02;7.07;;;3.40;;
33862;SDS011;20158;51.436;-2.742;2022-07-23T04:19:28;5.22;;;3.50;;
33862;SDS011;20158;51.436;-2.742;2022-07-23T04:22:02;4.85;;;3.80;;
33862;SDS011;20158;51.436;-2.742;2022-07-23T04:24:30;3.75;;;2.97;;
33862;SDS011;20158;51.436;-2.742;2022-07-23T04:26:56;4.50;;;3.38;;
33862;SDS011;20158;51.436;-2.742;2022-07-23T04:29:24;3.50;;;2.90;;
33862;SDS011;20158;51.436;-2.742;2022-07-23T04:31:50;5.18;;;3.10;;
33862;SDS011;20158;51.436;-2.742;2022-07-23T04:34:17;5.18;;;2.92;;
33862;SDS011;20158;51.436;-2.742;2022-07-23T04:36:43;4.65;;;3.10;;
33862;SDS011;20158;51.436;-2.742;2022-07-23T04:39:09;5.60;;;2.88;;
33862;SDS011;20158;51.436;-2.742;2022-07-23T04:41:35;5.63;;;4.22;;
33862;SDS011;20158;51.436;-2.742;2022-07-23T04:44:01;4.82;;;2.78;;
33862;SDS011;20158;51.436;-2.742;2022-07-23T04:46:27;3.78;;;3.00;;
33862;SDS011;20158;51.436;-2.742;2022-07-23T04:48:54;3.33;;;2.78;;
33862;SDS011;20158;51.436;-2.742;2022-07-23T04:51:20;4.03;;;3.00;;
33862;SDS011;20158;51.436;-2.742;2022-07-23T04:53:46;4.28;;;3.08;;
33862;SDS011;20158;51.436;-2.742;2022-07-23T04:56:13;3.65;;;3.20;;
33862;SDS011;20158;51.436;-2.742;2022-07-23T04:58:39;3.10;;;2.80;;
33862;SDS011;20158;51.436;-2.742;2022-07-23T05:01:05;3.35;;;2.70;;
33862;SDS011;20158;51.436;-2.742;2022-07-23T05:03:34;4.63;;;3.10;;
33862;SDS011;20158;51.436;-2.742;2022-07-23T05:05:59;3.78;;;2.92;;
33862;SDS011;20158;51.436;-2.742;2022-07-23T05:08:26;4.40;;;2.80;;
33862;SDS011;20158;51.436;-2.742;2022-07-23T05:10:55;4.75;;;2.60;;
33862;SDS011;20158;51.436;-2.742;2022-07-23T05:13:21;4.43;;;3.10;;
33862;SDS011;20158;51.436;-2.742;2022-07-23T05:15:50;3.45;;;2.67;;
33862;SDS011;20158;51.436;-2.742;2022-07-23T05:18:16;6.22;;;3.00;;
33862;SDS011;20158;51.436;-2.742;2022-07-23T05:20:43;5.28;;;2.70;;
33862;SDS011;20158;51.436;-2.742;2022-07-23T05:23:12;6.60;;;2.60;;
33862;SDS011;20158;51.436;-2.742;2022-07-23T05:25:39;4.90;;;2.72;;
33862;SDS011;20158;51.436;-2.742;2022-07-23T05:28:06;3.83;;;2.47;;
33862;SDS011;20158;51.436;-2.742;2022-07-23T05:30:32;5.97;;;3.03;;
33862;SDS011;20158;51.436;-2.742;2022-07-23T05:33:01;4.68;;;2.40;;
33862;SDS011;20158;51.436;-2.742;2022-07-23T05:35:27;3.30;;;2.70;;
33862;SDS011;20158;51.436;-2.742;2022-07-23T05:38:32;4.05;;;2.50;;
33862;SDS011;20158;51.436;-2.742;2022-07-23T05:40:59;3.53;;;2.53;;
33862;SDS011;20158;51.436;-2.742;2022-07-23T05:43:26;5.43;;;2.75;;
33862;SDS011;20158;51.436;-2.742;2022-07-23T05:45:53;3.15;;;2.88;;
33862;SDS011;20158;51.436;-2.742;2022-07-23T05:48:19;4.88;;;3.20;;
33862;SDS011;20158;51.436;-2.742;2022-07-23T05:50:57;3.30;;;2.83;;
33862;SDS011;20158;51.436;-2.742;2022-07-23T05:53:30;5.88;;;2.85;;
33862;SDS011;20158;51.436;-2.742;2022-07-23T05:56:18;4.18;;;3.20;;
33862;SDS011;20158;51.436;-2.742;2022-07-23T05:58:44;4.78;;;2.97;;
33862;SDS011;20158;51.436;-2.742;2022-07-23T06:01:12;5.85;;;3.05;;
33862;SDS011;20158;51.436;-2.742;2022-07-23T06:03:46;3.20;;;2.83;;
33862;SDS011;20158;51.436;-2.742;2022-07-23T06:06:11;5.50;;;3.15;;
33862;SDS011;20158;51.436;-2.742;2022-07-23T06:08:37;3.58;;;2.83;;
33862;SDS011;20158;51.436;-2.742;2022-07-23T06:11:06;8.10;;;4.15;;
33862;SDS011;20158;51.436;-2.742;2022-07-23T06:13:32;3.33;;;3.03;;
33862;SDS011;20158;51.436;-2.742;2022-07-23T06:15:58;7.25;;;2.58;;
33862;SDS011;20158;51.436;-2.742;2022-07-23T06:18:24;9.45;;;3.85;;
33862;SDS011;20158;51.436;-2.742;2022-07-23T06:20:50;7.57;;;3.40;;
33862;SDS011;20158;51.436;-2.742;2022-07-23T06:23:16;5.15;;;3.00;;
33862;SDS011;20158;51.436;-2.742;2022-07-23T06:25:42;3.97;;;2.95;;
33862;SDS011;20158;51.436;-2.742;2022-07-23T06:28:08;5.22;;;2.70;;
33862;SDS011;20158;51.436;-2.742;2022-07-23T06:30:34;5.63;;;2.75;;
33862;SDS011;20158;51.436;-2.742;2022-07-23T06:33:02;3.22;;;2.90;;
33862;SDS011;20158;51.436;-2.742;2022-07-23T06:35:28;4.65;;;2.35;;
33862;SDS011;20158;51.436;-2.742;2022-07-23T06:37:54;3.95;;;2.58;;
33862;SDS011;20158;51.436;-2.742;2022-07-23T06:40:21;7.00;;;2.60;;
33862;SDS011;20158;51.436;-2.742;2022-07-23T06:42:46;5.28;;;2.88;;
33862;SDS011;20158;51.436;-2.742;2022-07-23T06:45:21;4.68;;;2.88;;
33862;SDS011;20158;51.436;-2.742;2022-07-23T06:47:47;3.55;;;2.45;;
33862;SDS011;20158;51.436;-2.742;2022-07-23T06:50:13;6.75;;;2.60;;
33862;SDS011;20158;51.436;-2.742;2022-07-23T06:52:41;3.80;;;2.30;;
33862;SDS011;20158;51.436;-2.742;2022-07-23T06:55:07;4.07;;;2.40;;
33862;SDS011;20158;51.436;-2.742;2022-07-23T06:57:33;2.85;;;2.20;;
33862;SDS011;20158;51.436;-2.742;2022-07-23T06:59:59;3.05;;;2.15;;
33862;SDS011;20158;51.436;-2.742;2022-07-23T07:02:24;3.85;;;3.17;;
33862;SDS011;20158;51.436;-2.742;2022-07-23T07:04:50;3.50;;;3.20;;
33862;SDS011;20158;51.436;-2.742;2022-07-23T07:07:16;4.97;;;3.40;;
33862;SDS011;20158;51.436;-2.742;2022-07-23T07:09:42;4.55;;;3.10;;
33862;SDS011;20158;51.436;-2.742;2022-07-23T07:12:09;4.20;;;3.10;;
33862;SDS011;20158;51.436;-2.742;2022-07-23T07:14:37;5.25;;;3.40;;
33862;SDS011;20158;51.436;-2.742;2022-07-23T07:17:03;4.45;;;3.40;;
33862;SDS011;20158;51.436;-2.742;2022-07-23T07:19:29;3.42;;;2.83;;
33862;SDS011;20158;51.436;-2.742;2022-07-23T07:21:54;6.88;;;3.25;;
33862;SDS011;20158;51.436;-2.742;2022-07-23T07:24:20;4.90;;;2.70;;
33862;SDS011;20158;51.436;-2.742;2022-07-23T07:26:46;4.32;;;3.05;;
33862;SDS011;20158;51.436;-2.742;2022-07-23T07:29:12;4.00;;;2.88;;
33862;SDS011;20158;51.436;-2.742;2022-07-23T07:31:38;5.65;;;3.63;;
33862;SDS011;20158;51.436;-2.742;2022-07-23T07:34:04;3.83;;;2.00;;
33862;SDS011;20158;51.436;-2.742;2022-07-23T07:36:30;3.88;;;2.35;;
33862;SDS011;20158;51.436;-2.742;2022-07-23T07:38:56;3.80;;;2.45;;
33862;SDS011;20158;51.436;-2.742;2022-07-23T07:41:22;3.20;;;2.28;;
33862;SDS011;20158;51.436;-2.742;2022-07-23T07:43:51;2.17;;;1.80;;
33862;SDS011;20158;51.436;-2.742;2022-07-23T07:46:17;2.45;;;2.10;;
33862;SDS011;20158;51.436;-2.742;2022-07-23T07:48:43;3.35;;;2.03;;
33862;SDS011;20158;51.436;-2.742;2022-07-23T07:51:09;2.08;;;1.45;;
33862;SDS011;20158;51.436;-2.742;2022-07-23T07:53:35;2.22;;;1.77;;
33862;SDS011;20158;51.436;-2.742;2022-07-23T07:56:01;1.98;;;1.77;;
33862;SDS011;20158;51.436;-2.742;2022-07-23T07:58:27;2.13;;;1.52;;
33862;SDS011;20158;51.436;-2.742;2022-07-23T08:00:53;1.60;;;1.13;;
33862;SDS011;20158;51.436;-2.742;2022-07-23T08:03:18;1.80;;;1.42;;
33862;SDS011;20158;51.436;-2.742;2022-07-23T08:05:44;2.45;;;1.35;;
33862;SDS011;20158;51.436;-2.742;2022-07-23T08:08:10;1.42;;;1.17;;
33862;SDS011;20158;51.436;-2.742;2022-07-23T08:10:40;1.77;;;1.48;;
33862;SDS011;20158;51.436;-2.742;2022-07-23T08:13:06;3.22;;;1.63;;
33862;SDS011;20158;51.436;-2.742;2022-07-23T08:15:32;2.40;;;1.63;;
33862;SDS011;20158;51.436;-2.742;2022-07-23T08:17:58;1.23;;;1.13;;
33862;SDS011;20158;51.436;-2.742;2022-07-23T08:20:25;1.42;;;1.15;;
33862;SDS011;20158;51.436;-2.742;2022-07-23T08:25:29;1.27;;;1.17;;
33862;SDS011;20158;51.436;-2.742;2022-07-23T08:27:56;1.48;;;0.93;;
33862;SDS011;20158;51.436;-2.742;2022-07-23T08:30:23;1.90;;;1.20;;
33862;SDS011;20158;51.436;-2.742;2022-07-23T08:32:51;2.28;;;1.48;;
33862;SDS011;20158;51.436;-2.742;2022-07-23T08:35:26;0.82;;;0.82;;
33862;SDS011;20158;51.436;-2.742;2022-07-23T08:40:18;1.50;;;0.88;;
33862;SDS011;20158;51.436;-2.742;2022-07-23T08:42:46;1.48;;;1.00;;
33862;SDS011;20158;51.436;-2.742;2022-07-23T08:45:14;1.73;;;1.20;;
33862;SDS011;20158;51.436;-2.742;2022-07-23T08:47:41;1.33;;;0.88;;
33862;SDS011;20158;51.436;-2.742;2022-07-23T08:50:08;1.00;;;1.00;;
33862;SDS011;20158;51.436;-2.742;2022-07-23T08:52:35;1.40;;;1.27;;
33862;SDS011;20158;51.436;-2.742;2022-07-23T08:55:02;0.80;;;0.80;;
33862;SDS011;20158;51.436;-2.742;2022-07-23T08:57:29;0.80;;;0.80;;
33862;SDS011;20158;51.436;-2.742;2022-07-23T08:59:56;1.50;;;1.40;;
33862;SDS011;20158;51.436;-2.742;2022-07-23T09:02:22;0.88;;;0.73;;
33862;SDS011;20158;51.436;-2.742;2022-07-23T09:04:47;1.08;;;1.02;;
33862;SDS011;20158;51.436;-2.742;2022-07-23T09:07:13;1.95;;;0.90;;
33862;SDS011;20158;51.436;-2.742;2022-07-23T09:09:40;2.45;;;1.00;;
33862;SDS011;20158;51.436;-2.742;2022-07-23T09:12:06;1.08;;;0.98;;
33862;SDS011;20158;51.436;-2.742;2022-07-23T09:14:38;1.48;;;1.00;;
33862;SDS011;20158;51.436;-2.742;2022-07-23T09:17:12;0.95;;;0.77;;
33862;SDS011;20158;51.436;-2.742;2022-07-23T09:19:39;1.15;;;0.70;;
33862;SDS011;20158;51.436;-2.742;2022-07-23T09:22:22;1.00;;;0.80;;
33862;SDS011;20158;51.436;-2.742;2022-07-23T09:30:21;1.38;;;0.70;;
33862;SDS011;20158;51.436;-2.742;2022-07-23T09:33:23;1.38;;;0.85;;
33862;SDS011;20158;51.436;-2.742;2022-07-23T09:35:52;1.48;;;0.90;;
33862;SDS011;20158;51.436;-2.742;2022-07-23T09:38:21;1.42;;;0.90;;
33862;SDS011;20158;51.436;-2.742;2022-07-23T09:41:09;3.33;;;1.10;;
33862;SDS011;20158;51.436;-2.742;2022-07-23T09:43:36;4.22;;;1.85;;
33862;SDS011;20158;51.436;-2.742;2022-07-23T09:48:52;1.80;;;1.23;;
33862;SDS011;20158;51.436;-2.742;2022-07-23T09:51:19;2.08;;;1.13;;
33862;SDS011;20158;51.436;-2.742;2022-07-23T09:53:59;5.57;;;1.20;;
33862;SDS011;20158;51.436;-2.742;2022-07-23T09:56:24;2.97;;;1.38;;
33862;SDS011;20158;51.436;-2.742;2022-07-23T09:58:53;2.03;;;1.27;;
33862;SDS011;20158;51.436;-2.742;2022-07-23T10:01:32;3.17;;;1.50;;
33862;SDS011;20158;51.436;-2.742;2022-07-23T10:03:59;1.80;;;1.10;;
33862;SDS011;20158;51.436;-2.742;2022-07-23T10:06:46;1.58;;;1.23;;
33862;SDS011;20158;51.436;-2.742;2022-07-23T10:09:35;1.75;;;1.65;;
33862;SDS011;20158;51.436;-2.742;2022-07-23T10:12:20;1.98;;;1.27;;
33862;SDS011;20158;51.436;-2.742;2022-07-23T10:14:59;1.65;;;1.13;;
33862;SDS011;20158;51.436;-2.742;2022-07-23T10:17:26;2.20;;;1.35;;
33862;SDS011;20158;51.436;-2.742;2022-07-23T10:19:53;1.77;;;1.33;;
33862;SDS011;20158;51.436;-2.742;2022-07-23T10:22:20;1.90;;;1.50;;
33862;SDS011;20158;51.436;-2.742;2022-07-23T10:25:04;1.55;;;1.00;;
33862;SDS011;20158;51.436;-2.742;2022-07-23T10:27:56;1.45;;;1.35;;
33862;SDS011;20158;51.436;-2.742;2022-07-23T10:30:36;3.00;;;1.42;;
33862;SDS011;20158;51.436;-2.742;2022-07-23T10:33:41;2.60;;;1.50;;
33862;SDS011;20158;51.436;-2.742;2022-07-23T10:39:04;2.17;;;1.30;;
33862;SDS011;20158;51.436;-2.742;2022-07-23T10:41:34;2.38;;;1.20;;
33862;SDS011;20158;51.436;-2.742;2022-07-23T10:44:13;2.85;;;1.25;;
33862;SDS011;20158;51.436;-2.742;2022-07-23T10:47:04;2.53;;;1.00;;
33862;SDS011;20158;51.436;-2.742;2022-07-23T10:49:33;1.85;;;1.25;;
33862;SDS011;20158;51.436;-2.742;2022-07-23T10:52:19;1.98;;;1.42;;
33862;SDS011;20158;51.436;-2.742;2022-07-23T10:54:48;3.28;;;2.17;;
33862;SDS011;20158;51.436;-2.742;2022-07-23T10:57:20;1.88;;;1.30;;
33862;SDS011;20158;51.436;-2.742;2022-07-23T11:02:31;6.55;;;2.33;;
33862;SDS011;20158;51.436;-2.742;2022-07-23T11:05:04;3.70;;;1.50;;
33862;SDS011;20158;51.436;-2.742;2022-07-23T11:10:41;2.97;;;1.45;;
33862;SDS011;20158;51.436;-2.742;2022-07-23T11:13:27;1.55;;;1.35;;
33862;SDS011;20158;51.436;-2.742;2022-07-23T11:19:03;2.42;;;1.35;;
33862;SDS011;20158;51.436;-2.742;2022-07-23T11:23:58;3.00;;;1.30;;
33862;SDS011;20158;51.436;-2.742;2022-07-23T11:31:57;1.42;;;1.20;;
33862;SDS011;20158;51.436;-2.742;2022-07-23T11:34:31;2.65;;;1.30;;
33862;SDS011;20158;51.436;-2.742;2022-07-23T11:36:58;2.00;;;1.58;;
33862;SDS011;20158;51.436;-2.742;2022-07-23T11:39:26;1.55;;;1.42;;
33862;SDS011;20158;51.436;-2.742;2022-07-23T11:41:53;3.85;;;1.90;;
33862;SDS011;20158;51.436;-2.742;2022-07-23T11:44:35;1.63;;;1.40;;
33862;SDS011;20158;51.436;-2.742;2022-07-23T11:47:04;1.98;;;1.60;;
33862;SDS011;20158;51.436;-2.742;2022-07-23T11:49:32;2.75;;;1.65;;
33862;SDS011;20158;51.436;-2.742;2022-07-23T11:52:02;2.45;;;1.40;;
33862;SDS011;20158;51.436;-2.742;2022-07-23T11:56:58;2.35;;;1.38;;
33862;SDS011;20158;51.436;-2.742;2022-07-23T11:59:26;1.70;;;1.60;;
33862;SDS011;20158;51.436;-2.742;2022-07-23T12:01:59;2.92;;;2.47;;
33862;SDS011;20158;51.436;-2.742;2022-07-23T12:04:44;1.95;;;1.83;;
33862;SDS011;20158;51.436;-2.742;2022-07-23T12:10:15;3.92;;;1.98;;
33862;SDS011;20158;51.436;-2.742;2022-07-23T12:12:53;3.25;;;1.90;;
33862;SDS011;20158;51.436;-2.742;2022-07-23T12:15:28;3.38;;;2.00;;
33862;SDS011;20158;51.436;-2.742;2022-07-23T12:17:58;2.30;;;1.77;;
33862;SDS011;20158;51.436;-2.742;2022-07-23T12:20:31;5.55;;;2.30;;
33862;SDS011;20158;51.436;-2.742;2022-07-23T12:22:59;5.80;;;1.42;;
33862;SDS011;20158;51.436;-2.742;2022-07-23T12:25:28;2.10;;;1.70;;
33862;SDS011;20158;51.436;-2.742;2022-07-23T12:30:41;4.93;;;2.03;;
33862;SDS011;20158;51.436;-2.742;2022-07-23T12:33:09;2.55;;;1.58;;
33862;SDS011;20158;51.436;-2.742;2022-07-23T12:35:41;2.15;;;1.80;;
33862;SDS011;20158;51.436;-2.742;2022-07-23T12:38:09;1.98;;;1.77;;
33862;SDS011;20158;51.436;-2.742;2022-07-23T12:40:41;2.40;;;2.00;;
33862;SDS011;20158;51.436;-2.742;2022-07-23T12:43:09;3.58;;;1.60;;
33862;SDS011;20158;51.436;-2.742;2022-07-23T12:48:34;2.00;;;1.60;;
33862;SDS011;20158;51.436;-2.742;2022-07-23T12:51:06;2.78;;;1.10;;
33862;SDS011;20158;51.436;-2.742;2022-07-23T12:56:09;2.30;;;1.25;;
33862;SDS011;20158;51.436;-2.742;2022-07-23T13:06:29;2.90;;;1.65;;
33862;SDS011;20158;51.436;-2.742;2022-07-23T13:08:56;3.13;;;1.65;;
33862;SDS011;20158;51.436;-2.742;2022-07-23T13:11:22;4.70;;;2.03;;
33862;SDS011;20158;51.436;-2.742;2022-07-23T13:13:49;2.25;;;2.05;;
33862;SDS011;20158;51.436;-2.742;2022-07-23T13:16:15;4.75;;;2.00;;
33862;SDS011;20158;51.436;-2.742;2022-07-23T13:18:41;2.85;;;1.90;;
33862;SDS011;20158;51.436;-2.742;2022-07-23T13:21:07;3.72;;;1.73;;
33862;SDS011;20158;51.436;-2.742;2022-07-23T13:23:33;3.05;;;1.80;;
33862;SDS011;20158;51.436;-2.742;2022-07-23T13:25:59;2.67;;;1.85;;
33862;SDS011;20158;51.436;-2.742;2022-07-23T13:28:25;2.70;;;1.63;;
33862;SDS011;20158;51.436;-2.742;2022-07-23T13:30:51;1.88;;;1.70;;
33862;SDS011;20158;51.436;-2.742;2022-07-23T13:33:20;2.17;;;1.90;;
33862;SDS011;20158;51.436;-2.742;2022-07-23T13:35:49;4.00;;;2.15;;
33862;SDS011;20158;51.436;-2.742;2022-07-23T13:38:16;2.55;;;1.67;;
33862;SDS011;20158;51.436;-2.742;2022-07-23T13:40:44;2.75;;;2.00;;
33862;SDS011;20158;51.436;-2.742;2022-07-23T13:43:12;2.25;;;2.00;;
33862;SDS011;20158;51.436;-2.742;2022-07-23T13:45:39;4.22;;;2.17;;
33862;SDS011;20158;51.436;-2.742;2022-07-23T13:48:09;3.45;;;2.05;;
33862;SDS011;20158;51.436;-2.742;2022-07-23T13:50:36;2.63;;;1.85;;
33862;SDS011;20158;51.436;-2.742;2022-07-23T13:53:03;2.17;;;1.95;;
33862;SDS011;20158;51.436;-2.742;2022-07-23T13:55:31;2.50;;;2.22;;
33862;SDS011;20158;51.436;-2.742;2022-07-23T13:57:57;2.20;;;2.00;;
33862;SDS011;20158;51.436;-2.742;2022-07-23T14:00:24;3.15;;;2.45;;
33862;SDS011;20158;51.436;-2.742;2022-07-23T14:02:51;5.47;;;2.80;;
33862;SDS011;20158;51.436;-2.742;2022-07-23T14:05:17;4.65;;;2.53;;
33862;SDS011;20158;51.436;-2.742;2022-07-23T14:07:43;3.65;;;2.75;;
33862;SDS011;20158;51.436;-2.742;2022-07-23T14:10:10;2.17;;;1.92;;
33862;SDS011;20158;51.436;-2.742;2022-07-23T14:12:36;3.22;;;1.95;;
33862;SDS011;20158;51.436;-2.742;2022-07-23T14:15:03;2.97;;;2.13;;
33862;SDS011;20158;51.436;-2.742;2022-07-23T14:17:30;2.47;;;2.28;;
33862;SDS011;20158;51.436;-2.742;2022-07-23T14:19:57;5.68;;;2.85;;
33862;SDS011;20158;51.436;-2.742;2022-07-23T14:22:24;2.78;;;2.22;;
33862;SDS011;20158;51.436;-2.742;2022-07-23T14:24:50;2.90;;;2.25;;
33862;SDS011;20158;51.436;-2.742;2022-07-23T14:27:16;4.22;;;2.20;;
33862;SDS011;20158;51.436;-2.742;2022-07-23T14:29:42;4.00;;;2.17;;
33862;SDS011;20158;51.436;-2.742;2022-07-23T14:32:08;3.83;;;2.47;;
33862;SDS011;20158;51.436;-2.742;2022-07-23T14:34:34;5.55;;;2.80;;
33862;SDS011;20158;51.436;-2.742;2022-07-23T14:37:01;4.05;;;2.85;;
33862;SDS011;20158;51.436;-2.742;2022-07-23T14:39:27;3.53;;;3.15;;
33862;SDS011;20158;51.436;-2.742;2022-07-23T14:41:53;5.55;;;3.03;;
33862;SDS011;20158;51.436;-2.742;2022-07-23T14:44:19;9.73;;;3.28;;
33862;SDS011;20158;51.436;-2.742;2022-07-23T14:46:45;4.85;;;3.08;;
33862;SDS011;20158;51.436;-2.742;2022-07-23T14:49:11;4.38;;;3.10;;
33862;SDS011;20158;51.436;-2.742;2022-07-23T14:51:36;3.40;;;3.10;;
33862;SDS011;20158;51.436;-2.742;2022-07-23T14:54:06;5.57;;;2.80;;
33862;SDS011;20158;51.436;-2.742;2022-07-23T14:56:32;5.55;;;2.90;;
33862;SDS011;20158;51.436;-2.742;2022-07-23T14:58:58;5.85;;;3.20;;
33862;SDS011;20158;51.436;-2.742;2022-07-23T15:01:24;3.40;;;3.00;;
33862;SDS011;20158;51.436;-2.742;2022-07-23T15:03:50;5.13;;;3.13;;
33862;SDS011;20158;51.436;-2.742;2022-07-23T15:06:16;4.70;;;2.95;;
33862;SDS011;20158;51.436;-2.742;2022-07-23T15:08:43;6.13;;;3.45;;
33862;SDS011;20158;51.436;-2.742;2022-07-23T15:11:09;4.93;;;2.90;;
33862;SDS011;20158;51.436;-2.742;2022-07-23T15:13:35;4.55;;;2.88;;
33862;SDS011;20158;51.436;-2.742;2022-07-23T15:16:02;3.85;;;2.95;;
33862;SDS011;20158;51.436;-2.742;2022-07-23T15:18:29;4.10;;;3.40;;
33862;SDS011;20158;51.436;-2.742;2022-07-23T15:20:56;3.80;;;3.10;;
33862;SDS011;20158;51.436;-2.742;2022-07-23T15:23:22;3.17;;;2.88;;
33862;SDS011;20158;51.436;-2.742;2022-07-23T15:25:48;4.65;;;3.00;;
33862;SDS011;20158;51.436;-2.742;2022-07-23T15:28:13;6.25;;;3.00;;
33862;SDS011;20158;51.436;-2.742;2022-07-23T15:30:40;3.38;;;2.70;;
33862;SDS011;20158;51.436;-2.742;2022-07-23T15:33:06;5.78;;;4.03;;
33862;SDS011;20158;51.436;-2.742;2022-07-23T15:35:32;3.55;;;2.92;;